sensor_id;sensor_type;location;lat;lon;timestamp;temperature;humidity
25983;DHT22;13773;48.868;10.730;2023-11-19T00:02:09;5.10;99.90
25983;DHT22;13773;48.868;10.730;2023-11-19T00:04:37;5.10;99.90
25983;DHT22;13773;48.868;10.730;2023-11-19T00:07:06;5.10;99.90
25983;DHT22;13773;48.868;10.730;2023-11-19T00:09:33;5.10;99.90
25983;DHT22;13773;48.868;10.730;2023-11-19T00:12:02;5.20;99.90
25983;DHT22;13773;48.868;10.730;2023-11-19T00:14:30;5.20;99.90
25983;DHT22;13773;48.868;10.730;2023-11-19T00:16:56;5.20;99.90
25983;DHT22;13773;48.868;10.730;2023-11-19T00:19:21;5.20;99.90
25983;DHT22;13773;48.868;10.730;2023-11-19T00:21:47;5.20;99.90
25983;DHT22;13773;48.868;10.730;2023-11-19T00:24:13;5.30;99.90
25983;DHT22;13773;48.868;10.730;2023-11-19T00:26:42;5.30;99.90
25983;DHT22;13773;48.868;10.730;2023-11-19T00:29:08;5.30;99.90
25983;DHT22;13773;48.868;10.730;2023-11-19T00:31:33;5.30;99.90
25983;DHT22;13773;48.868;10.730;2023-11-19T00:33:59;5.30;99.90
25983;DHT22;13773;48.868;10.730;2023-11-19T00:36:25;5.30;99.90
25983;DHT22;13773;48.868;10.730;2023-11-19T00:38:54;5.30;99.90
25983;DHT22;13773;48.868;10.730;2023-11-19T00:41:20;5.40;99.90
25983;DHT22;13773;48.868;10.730;2023-11-19T00:43:45;5.40;99.90
25983;DHT22;13773;48.868;10.730;2023-11-19T00:46:11;5.40;99.90
25983;DHT22;13773;48.868;10.730;2023-11-19T00:48:37;5.40;99.90
25983;DHT22;13773;48.868;10.730;2023-11-19T00:51:03;5.40;99.90
25983;DHT22;13773;48.868;10.730;2023-11-19T00:53:32;5.50;99.90
25983;DHT22;13773;48.868;10.730;2023-11-19T00:55:59;5.50;99.90
25983;DHT22;13773;48.868;10.730;2023-11-19T00:58:25;5.50;99.90
25983;DHT22;13773;48.868;10.730;2023-11-19T01:00:51;5.50;99.90
25983;DHT22;13773;48.868;10.730;2023-11-19T01:03:17;5.50;99.90
25983;DHT22;13773;48.868;10.730;2023-11-19T01:05:42;5.50;99.90
25983;DHT22;13773;48.868;10.730;2023-11-19T01:08:09;5.50;99.90
25983;DHT22;13773;48.868;10.730;2023-11-19T01:10:37;5.50;99.90
25983;DHT22;13773;48.868;10.730;2023-11-19T01:13:03;5.50;99.90
25983;DHT22;13773;48.868;10.730;2023-11-19T01:15:31;5.60;99.90
25983;DHT22;13773;48.868;10.730;2023-11-19T01:17:57;5.60;99.90
25983;DHT22;13773;48.868;10.730;2023-11-19T01:20:23;5.60;99.90
25983;DHT22;13773;48.868;10.730;2023-11-19T01:22:49;5.60;99.90
25983;DHT22;13773;48.868;10.730;2023-11-19T01:25:15;5.60;99.90
25983;DHT22;13773;48.868;10.730;2023-11-19T01:27:40;5.60;99.90
25983;DHT22;13773;48.868;10.730;2023-11-19T01:30:07;5.60;99.90
25983;DHT22;13773;48.868;10.730;2023-11-19T01:32:35;5.60;99.90
25983;DHT22;13773;48.868;10.730;2023-11-19T01:35:03;5.60;99.90
25983;DHT22;13773;48.868;10.730;2023-11-19T01:37:29;5.60;99.90
25983;DHT22;13773;48.868;10.730;2023-11-19T01:39:56;5.60;99.90
25983;DHT22;13773;48.868;10.730;2023-11-19T01:42:22;5.60;99.90
25983;DHT22;13773;48.868;10.730;2023-11-19T01:45:00;5.70;99.90
25983;DHT22;13773;48.868;10.730;2023-11-19T01:47:30;5.70;99.90
25983;DHT22;13773;48.868;10.730;2023-11-19T01:49:57;5.70;99.90
25983;DHT22;13773;48.868;10.730;2023-11-19T01:52:23;5.70;99.90
25983;DHT22;13773;48.868;10.730;2023-11-19T01:54:50;5.70;99.90
25983;DHT22;13773;48.868;10.730;2023-11-19T01:57:18;5.70;99.90
25983;DHT22;13773;48.868;10.730;2023-11-19T01:59:44;5.70;99.90
25983;DHT22;13773;48.868;10.730;2023-11-19T02:02:10;5.70;99.90
25983;DHT22;13773;48.868;10.730;2023-11-19T02:04:35;5.70;99.90
25983;DHT22;13773;48.868;10.730;2023-11-19T02:07:01;5.70;99.90
25983;DHT22;13773;48.868;10.730;2023-11-19T02:09:27;5.70;99.90
25983;DHT22;13773;48.868;10.730;2023-11-19T02:11:53;5.70;99.90
25983;DHT22;13773;48.868;10.730;2023-11-19T02:14:25;5.70;99.90
25983;DHT22;13773;48.868;10.730;2023-11-19T02:16:51;5.70;99.90
25983;DHT22;13773;48.868;10.730;2023-11-19T02:19:20;5.70;99.90
25983;DHT22;13773;48.868;10.730;2023-11-19T02:21:46;5.80;99.90
25983;DHT22;13773;48.868;10.730;2023-11-19T02:24:14;5.80;99.90
25983;DHT22;13773;48.868;10.730;2023-11-19T02:27:05;5.80;99.90
25983;DHT22;13773;48.868;10.730;2023-11-19T02:29:33;5.80;99.90
25983;DHT22;13773;48.868;10.730;2023-11-19T02:32:00;5.80;99.90
25983;DHT22;13773;48.868;10.730;2023-11-19T02:34:28;5.80;99.90
25983;DHT22;13773;48.868;10.730;2023-11-19T02:36:54;5.80;99.90
25983;DHT22;13773;48.868;10.730;2023-11-19T02:39:20;5.80;99.90
25983;DHT22;13773;48.868;10.730;2023-11-19T02:41:47;5.90;99.90
25983;DHT22;13773;48.868;10.730;2023-11-19T02:44:16;5.80;99.90
25983;DHT22;13773;48.868;10.730;2023-11-19T02:46:42;5.80;99.90
25983;DHT22;13773;48.868;10.730;2023-11-19T02:49:07;5.80;99.90
25983;DHT22;13773;48.868;10.730;2023-11-19T02:51:33;5.80;99.90
25983;DHT22;13773;48.868;10.730;2023-11-19T02:54:00;5.90;99.90
25983;DHT22;13773;48.868;10.730;2023-11-19T02:56:26;5.90;99.90
25983;DHT22;13773;48.868;10.730;2023-11-19T02:58:52;5.80;99.90
25983;DHT22;13773;48.868;10.730;2023-11-19T03:01:25;5.90;99.90
25983;DHT22;13773;48.868;10.730;2023-11-19T03:04:00;5.90;99.90
25983;DHT22;13773;48.868;10.730;2023-11-19T03:06:27;5.90;99.90
25983;DHT22;13773;48.868;10.730;2023-11-19T03:08:55;5.90;99.90
25983;DHT22;13773;48.868;10.730;2023-11-19T03:11:20;5.90;99.90
25983;DHT22;13773;48.868;10.730;2023-11-19T03:13:46;5.90;99.90
25983;DHT22;13773;48.868;10.730;2023-11-19T03:16:12;5.90;99.90
25983;DHT22;13773;48.868;10.730;2023-11-19T03:18:38;6.00;99.90
25983;DHT22;13773;48.868;10.730;2023-11-19T03:21:06;6.00;99.90
25983;DHT22;13773;48.868;10.730;2023-11-19T03:23:33;6.00;99.90
25983;DHT22;13773;48.868;10.730;2023-11-19T03:25:59;6.00;99.90
25983;DHT22;13773;48.868;10.730;2023-11-19T03:28:28;6.00;99.90
25983;DHT22;13773;48.868;10.730;2023-11-19T03:30:54;6.00;99.90
25983;DHT22;13773;48.868;10.730;2023-11-19T03:33:20;6.00;99.90
25983;DHT22;13773;48.868;10.730;2023-11-19T03:35:46;6.00;99.90
25983;DHT22;13773;48.868;10.730;2023-11-19T03:38:12;6.10;99.90
25983;DHT22;13773;48.868;10.730;2023-11-19T03:40:38;6.10;99.90
25983;DHT22;13773;48.868;10.730;2023-11-19T03:43:04;6.10;99.90
25983;DHT22;13773;48.868;10.730;2023-11-19T03:45:30;6.10;99.90
25983;DHT22;13773;48.868;10.730;2023-11-19T03:47:56;6.10;99.90
25983;DHT22;13773;48.868;10.730;2023-11-19T03:50:22;6.10;99.90
25983;DHT22;13773;48.868;10.730;2023-11-19T03:52:49;6.10;99.90
25983;DHT22;13773;48.868;10.730;2023-11-19T03:55:15;6.20;99.90
25983;DHT22;13773;48.868;10.730;2023-11-19T03:57:40;6.20;99.90
25983;DHT22;13773;48.868;10.730;2023-11-19T04:00:06;6.20;99.90
25983;DHT22;13773;48.868;10.730;2023-11-19T04:02:36;6.20;99.90
25983;DHT22;13773;48.868;10.730;2023-11-19T04:05:02;6.20;99.90
25983;DHT22;13773;48.868;10.730;2023-11-19T04:07:29;6.20;99.90
25983;DHT22;13773;48.868;10.730;2023-11-19T04:09:54;6.20;99.90
25983;DHT22;13773;48.868;10.730;2023-11-19T04:12:20;6.30;99.90
25983;DHT22;13773;48.868;10.730;2023-11-19T04:14:47;6.30;99.90
25983;DHT22;13773;48.868;10.730;2023-11-19T04:17:13;6.30;99.90
25983;DHT22;13773;48.868;10.730;2023-11-19T04:19:38;6.30;99.90
25983;DHT22;13773;48.868;10.730;2023-11-19T04:22:07;6.40;99.90
25983;DHT22;13773;48.868;10.730;2023-11-19T04:24:34;6.40;99.90
25983;DHT22;13773;48.868;10.730;2023-11-19T04:27:00;6.50;99.90
25983;DHT22;13773;48.868;10.730;2023-11-19T04:29:25;6.50;99.90
25983;DHT22;13773;48.868;10.730;2023-11-19T04:31:51;6.50;99.90
25983;DHT22;13773;48.868;10.730;2023-11-19T04:34:17;6.50;99.90
25983;DHT22;13773;48.868;10.730;2023-11-19T04:36:42;6.50;99.90
25983;DHT22;13773;48.868;10.730;2023-11-19T04:39:09;6.60;99.90
25983;DHT22;13773;48.868;10.730;2023-11-19T04:41:48;6.60;99.90
25983;DHT22;13773;48.868;10.730;2023-11-19T04:44:15;6.60;99.90
25983;DHT22;13773;48.868;10.730;2023-11-19T04:46:41;6.70;99.90
25983;DHT22;13773;48.868;10.730;2023-11-19T04:49:09;6.60;99.90
25983;DHT22;13773;48.868;10.730;2023-11-19T04:51:43;6.70;99.90
25983;DHT22;13773;48.868;10.730;2023-11-19T04:54:09;6.70;99.90
25983;DHT22;13773;48.868;10.730;2023-11-19T04:56:38;6.80;99.90
25983;DHT22;13773;48.868;10.730;2023-11-19T04:59:05;6.80;99.90
25983;DHT22;13773;48.868;10.730;2023-11-19T05:01:35;6.80;99.90
25983;DHT22;13773;48.868;10.730;2023-11-19T05:04:01;6.90;99.90
25983;DHT22;13773;48.868;10.730;2023-11-19T05:06:31;6.90;99.90
25983;DHT22;13773;48.868;10.730;2023-11-19T05:08:59;6.90;99.90
25983;DHT22;13773;48.868;10.730;2023-11-19T05:11:26;6.90;99.90
25983;DHT22;13773;48.868;10.730;2023-11-19T05:13:53;7.00;99.90
25983;DHT22;13773;48.868;10.730;2023-11-19T05:16:19;7.10;99.90
25983;DHT22;13773;48.868;10.730;2023-11-19T05:18:46;7.10;99.90
25983;DHT22;13773;48.868;10.730;2023-11-19T05:21:12;7.10;99.90
25983;DHT22;13773;48.868;10.730;2023-11-19T05:23:38;7.10;99.90
25983;DHT22;13773;48.868;10.730;2023-11-19T05:26:04;7.20;99.90
25983;DHT22;13773;48.868;10.730;2023-11-19T05:28:30;7.20;99.90
25983;DHT22;13773;48.868;10.730;2023-11-19T05:30:56;7.20;99.90
25983;DHT22;13773;48.868;10.730;2023-11-19T05:33:22;7.20;99.90
25983;DHT22;13773;48.868;10.730;2023-11-19T05:35:47;7.20;99.90
25983;DHT22;13773;48.868;10.730;2023-11-19T05:38:13;7.20;99.90
25983;DHT22;13773;48.868;10.730;2023-11-19T05:40:40;7.30;99.90
25983;DHT22;13773;48.868;10.730;2023-11-19T05:43:06;7.30;99.90
25983;DHT22;13773;48.868;10.730;2023-11-19T05:45:32;7.30;99.90
25983;DHT22;13773;48.868;10.730;2023-11-19T05:47:58;7.30;99.90
25983;DHT22;13773;48.868;10.730;2023-11-19T05:50:23;7.40;99.90
25983;DHT22;13773;48.868;10.730;2023-11-19T05:52:49;7.40;99.90
25983;DHT22;13773;48.868;10.730;2023-11-19T05:55:15;7.40;99.90
25983;DHT22;13773;48.868;10.730;2023-11-19T05:57:41;7.40;99.90
25983;DHT22;13773;48.868;10.730;2023-11-19T06:00:07;7.40;99.90
25983;DHT22;13773;48.868;10.730;2023-11-19T06:02:34;7.40;99.90
25983;DHT22;13773;48.868;10.730;2023-11-19T06:05:00;7.50;99.90
25983;DHT22;13773;48.868;10.730;2023-11-19T06:07:27;7.50;99.90
25983;DHT22;13773;48.868;10.730;2023-11-19T06:09:53;7.50;99.90
25983;DHT22;13773;48.868;10.730;2023-11-19T06:12:18;7.50;99.90
25983;DHT22;13773;48.868;10.730;2023-11-19T06:14:44;7.50;99.90
25983;DHT22;13773;48.868;10.730;2023-11-19T06:17:10;7.60;99.90
25983;DHT22;13773;48.868;10.730;2023-11-19T06:19:37;7.60;99.90
25983;DHT22;13773;48.868;10.730;2023-11-19T06:22:03;7.60;99.90
25983;DHT22;13773;48.868;10.730;2023-11-19T06:24:29;7.60;99.90
25983;DHT22;13773;48.868;10.730;2023-11-19T06:26:55;7.60;99.90
25983;DHT22;13773;48.868;10.730;2023-11-19T06:29:20;7.60;99.90
25983;DHT22;13773;48.868;10.730;2023-11-19T06:31:46;7.60;99.90
25983;DHT22;13773;48.868;10.730;2023-11-19T06:34:14;7.60;99.90
25983;DHT22;13773;48.868;10.730;2023-11-19T06:36:40;7.60;99.90
25983;DHT22;13773;48.868;10.730;2023-11-19T06:39:05;7.60;99.90
25983;DHT22;13773;48.868;10.730;2023-11-19T06:41:31;7.60;99.90
25983;DHT22;13773;48.868;10.730;2023-11-19T06:43:57;7.60;99.90
25983;DHT22;13773;48.868;10.730;2023-11-19T06:46:22;7.60;99.90
25983;DHT22;13773;48.868;10.730;2023-11-19T06:48:48;7.60;99.90
25983;DHT22;13773;48.868;10.730;2023-11-19T06:51:15;7.70;99.90
25983;DHT22;13773;48.868;10.730;2023-11-19T06:53:42;7.70;99.90
25983;DHT22;13773;48.868;10.730;2023-11-19T06:56:25;7.70;99.90
25983;DHT22;13773;48.868;10.730;2023-11-19T06:58:51;7.80;99.90
25983;DHT22;13773;48.868;10.730;2023-11-19T07:01:17;7.80;99.90
25983;DHT22;13773;48.868;10.730;2023-11-19T07:03:47;7.90;99.90
25983;DHT22;13773;48.868;10.730;2023-11-19T07:06:13;8.00;99.90
25983;DHT22;13773;48.868;10.730;2023-11-19T07:08:42;8.00;99.90
25983;DHT22;13773;48.868;10.730;2023-11-19T07:11:12;8.00;99.90
25983;DHT22;13773;48.868;10.730;2023-11-19T07:13:40;8.10;99.90
25983;DHT22;13773;48.868;10.730;2023-11-19T07:16:07;8.10;99.90
25983;DHT22;13773;48.868;10.730;2023-11-19T07:18:35;8.10;99.90
25983;DHT22;13773;48.868;10.730;2023-11-19T07:21:01;8.20;99.90
25983;DHT22;13773;48.868;10.730;2023-11-19T07:23:28;8.20;99.90
25983;DHT22;13773;48.868;10.730;2023-11-19T07:25:54;8.30;99.90
25983;DHT22;13773;48.868;10.730;2023-11-19T07:28:19;8.30;99.90
25983;DHT22;13773;48.868;10.730;2023-11-19T07:30:45;8.40;99.90
25983;DHT22;13773;48.868;10.730;2023-11-19T07:33:11;8.40;99.90
25983;DHT22;13773;48.868;10.730;2023-11-19T07:35:39;8.50;99.90
25983;DHT22;13773;48.868;10.730;2023-11-19T07:38:06;8.50;99.90
25983;DHT22;13773;48.868;10.730;2023-11-19T07:40:32;8.50;99.90
25983;DHT22;13773;48.868;10.730;2023-11-19T07:42:58;8.50;99.90
25983;DHT22;13773;48.868;10.730;2023-11-19T07:45:23;8.60;99.90
25983;DHT22;13773;48.868;10.730;2023-11-19T07:47:49;8.50;99.90
25983;DHT22;13773;48.868;10.730;2023-11-19T07:50:16;8.50;99.90
25983;DHT22;13773;48.868;10.730;2023-11-19T07:52:44;8.60;99.90
25983;DHT22;13773;48.868;10.730;2023-11-19T07:55:10;8.50;99.90
25983;DHT22;13773;48.868;10.730;2023-11-19T07:57:36;8.50;99.90
25983;DHT22;13773;48.868;10.730;2023-11-19T08:00:02;8.50;99.90
25983;DHT22;13773;48.868;10.730;2023-11-19T08:02:28;8.50;99.90
25983;DHT22;13773;48.868;10.730;2023-11-19T08:04:54;8.60;99.90
25983;DHT22;13773;48.868;10.730;2023-11-19T08:07:21;8.60;99.90
25983;DHT22;13773;48.868;10.730;2023-11-19T08:09:47;8.60;99.90
25983;DHT22;13773;48.868;10.730;2023-11-19T08:12:13;8.60;99.90
25983;DHT22;13773;48.868;10.730;2023-11-19T08:14:41;8.70;99.90
25983;DHT22;13773;48.868;10.730;2023-11-19T08:17:07;8.70;99.90
25983;DHT22;13773;48.868;10.730;2023-11-19T08:19:32;8.80;99.90
25983;DHT22;13773;48.868;10.730;2023-11-19T08:21:58;8.80;99.90
25983;DHT22;13773;48.868;10.730;2023-11-19T08:24:24;8.90;99.90
25983;DHT22;13773;48.868;10.730;2023-11-19T08:26:49;8.90;99.90
25983;DHT22;13773;48.868;10.730;2023-11-19T08:29:15;9.00;99.90
25983;DHT22;13773;48.868;10.730;2023-11-19T08:31:41;9.00;99.90
25983;DHT22;13773;48.868;10.730;2023-11-19T08:34:07;9.10;99.90
25983;DHT22;13773;48.868;10.730;2023-11-19T08:36:36;9.10;99.90
25983;DHT22;13773;48.868;10.730;2023-11-19T08:39:03;9.10;99.90
25983;DHT22;13773;48.868;10.730;2023-11-19T08:41:28;9.10;99.90
25983;DHT22;13773;48.868;10.730;2023-11-19T08:43:54;9.20;99.90
25983;DHT22;13773;48.868;10.730;2023-11-19T08:46:20;9.30;99.90
25983;DHT22;13773;48.868;10.730;2023-11-19T08:48:45;9.30;99.90
25983;DHT22;13773;48.868;10.730;2023-11-19T08:51:12;9.40;99.90
25983;DHT22;13773;48.868;10.730;2023-11-19T08:53:38;9.40;99.90
25983;DHT22;13773;48.868;10.730;2023-11-19T08:56:04;9.50;99.90
25983;DHT22;13773;48.868;10.730;2023-11-19T08:58:30;9.60;99.90
25983;DHT22;13773;48.868;10.730;2023-11-19T09:00:56;9.60;99.90
25983;DHT22;13773;48.868;10.730;2023-11-19T09:03:22;9.70;99.90
25983;DHT22;13773;48.868;10.730;2023-11-19T09:05:47;9.70;99.90
25983;DHT22;13773;48.868;10.730;2023-11-19T09:08:13;9.70;99.90
25983;DHT22;13773;48.868;10.730;2023-11-19T09:10:39;9.70;99.90
25983;DHT22;13773;48.868;10.730;2023-11-19T09:13:04;9.70;99.90
25983;DHT22;13773;48.868;10.730;2023-11-19T09:15:30;9.70;99.90
25983;DHT22;13773;48.868;10.730;2023-11-19T09:17:56;9.70;99.90
25983;DHT22;13773;48.868;10.730;2023-11-19T09:20:21;9.70;99.90
25983;DHT22;13773;48.868;10.730;2023-11-19T09:22:47;9.70;99.90
25983;DHT22;13773;48.868;10.730;2023-11-19T09:25:13;9.70;99.90
25983;DHT22;13773;48.868;10.730;2023-11-19T09:27:43;9.70;99.90
25983;DHT22;13773;48.868;10.730;2023-11-19T09:30:09;9.70;99.90
25983;DHT22;13773;48.868;10.730;2023-11-19T09:32:35;9.70;99.90
25983;DHT22;13773;48.868;10.730;2023-11-19T09:35:01;9.80;99.90
25983;DHT22;13773;48.868;10.730;2023-11-19T09:37:28;9.70;99.90
25983;DHT22;13773;48.868;10.730;2023-11-19T09:39:53;9.80;99.90
25983;DHT22;13773;48.868;10.730;2023-11-19T09:42:19;9.80;99.90
25983;DHT22;13773;48.868;10.730;2023-11-19T09:44:47;9.80;99.90
25983;DHT22;13773;48.868;10.730;2023-11-19T09:47:14;9.90;99.90
25983;DHT22;13773;48.868;10.730;2023-11-19T09:49:39;9.90;99.90
25983;DHT22;13773;48.868;10.730;2023-11-19T09:52:05;10.10;99.90
25983;DHT22;13773;48.868;10.730;2023-11-19T09:54:31;10.20;99.90
25983;DHT22;13773;48.868;10.730;2023-11-19T09:56:58;10.20;99.90
25983;DHT22;13773;48.868;10.730;2023-11-19T09:59:29;10.20;99.90
25983;DHT22;13773;48.868;10.730;2023-11-19T10:01:56;10.30;99.90
25983;DHT22;13773;48.868;10.730;2023-11-19T10:04:23;10.30;99.90
25983;DHT22;13773;48.868;10.730;2023-11-19T10:06:50;10.30;99.90
25983;DHT22;13773;48.868;10.730;2023-11-19T10:09:17;10.20;99.90
25983;DHT22;13773;48.868;10.730;2023-11-19T10:11:42;10.20;99.90
25983;DHT22;13773;48.868;10.730;2023-11-19T10:14:09;10.10;99.90
25983;DHT22;13773;48.868;10.730;2023-11-19T10:16:35;10.20;99.90
25983;DHT22;13773;48.868;10.730;2023-11-19T10:19:00;10.40;99.90
25983;DHT22;13773;48.868;10.730;2023-11-19T10:21:26;10.50;99.90
25983;DHT22;13773;48.868;10.730;2023-11-19T10:23:55;10.60;99.90
25983;DHT22;13773;48.868;10.730;2023-11-19T10:26:26;10.60;99.90
25983;DHT22;13773;48.868;10.730;2023-11-19T10:28:52;10.60;99.90
25983;DHT22;13773;48.868;10.730;2023-11-19T10:31:19;10.60;99.90
25983;DHT22;13773;48.868;10.730;2023-11-19T10:33:50;10.60;99.90
25983;DHT22;13773;48.868;10.730;2023-11-19T10:36:15;10.70;99.90
25983;DHT22;13773;48.868;10.730;2023-11-19T10:38:55;10.80;99.90
25983;DHT22;13773;48.868;10.730;2023-11-19T10:41:29;10.80;99.90
25983;DHT22;13773;48.868;10.730;2023-11-19T10:43:56;11.00;99.90
25983;DHT22;13773;48.868;10.730;2023-11-19T10:46:22;11.00;99.90
25983;DHT22;13773;48.868;10.730;2023-11-19T10:48:49;11.00;99.90
25983;DHT22;13773;48.868;10.730;2023-11-19T10:51:19;11.00;99.90
25983;DHT22;13773;48.868;10.730;2023-11-19T10:53:49;11.00;99.90
25983;DHT22;13773;48.868;10.730;2023-11-19T10:56:20;10.20;99.90
25983;DHT22;13773;48.868;10.730;2023-11-19T10:58:51;10.90;99.90
25983;DHT22;13773;48.868;10.730;2023-11-19T11:01:20;11.00;99.90
25983;DHT22;13773;48.868;10.730;2023-11-19T11:03:51;10.90;99.90
25983;DHT22;13773;48.868;10.730;2023-11-19T11:06:19;11.00;99.90
25983;DHT22;13773;48.868;10.730;2023-11-19T11:08:46;10.90;99.90
25983;DHT22;13773;48.868;10.730;2023-11-19T11:11:15;11.00;99.90
25983;DHT22;13773;48.868;10.730;2023-11-19T11:13:42;11.00;99.90
25983;DHT22;13773;48.868;10.730;2023-11-19T11:16:09;11.00;99.90
25983;DHT22;13773;48.868;10.730;2023-11-19T11:18:36;11.00;99.90
25983;DHT22;13773;48.868;10.730;2023-11-19T11:21:07;11.20;99.90
25983;DHT22;13773;48.868;10.730;2023-11-19T11:26:29;11.40;99.90
25983;DHT22;13773;48.868;10.730;2023-11-19T11:29:03;11.60;99.90
25983;DHT22;13773;48.868;10.730;2023-11-19T11:32:00;11.80;99.90
25983;DHT22;13773;48.868;10.730;2023-11-19T11:39:34;12.10;99.90
25983;DHT22;13773;48.868;10.730;2023-11-19T11:45:08;12.10;99.90
25983;DHT22;13773;48.868;10.730;2023-11-19T11:50:10;12.30;99.90
25983;DHT22;13773;48.868;10.730;2023-11-19T11:55:37;12.60;99.90
25983;DHT22;13773;48.868;10.730;2023-11-19T11:58:04;12.80;99.90
25983;DHT22;13773;48.868;10.730;2023-11-19T12:00:37;12.90;99.90
25983;DHT22;13773;48.868;10.730;2023-11-19T12:03:05;12.90;99.90
25983;DHT22;13773;48.868;10.730;2023-11-19T12:05:32;12.90;99.90
25983;DHT22;13773;48.868;10.730;2023-11-19T12:08:04;12.80;99.90
25983;DHT22;13773;48.868;10.730;2023-11-19T12:10:36;12.90;99.90
25983;DHT22;13773;48.868;10.730;2023-11-19T12:13:05;12.90;99.90
25983;DHT22;13773;48.868;10.730;2023-11-19T12:15:32;13.00;99.90
25983;DHT22;13773;48.868;10.730;2023-11-19T12:17:58;13.30;99.90
25983;DHT22;13773;48.868;10.730;2023-11-19T12:20:25;13.40;99.90
25983;DHT22;13773;48.868;10.730;2023-11-19T12:22:52;13.40;99.90
25983;DHT22;13773;48.868;10.730;2023-11-19T12:25:20;13.50;99.90
25983;DHT22;13773;48.868;10.730;2023-11-19T12:27:52;13.60;99.90
25983;DHT22;13773;48.868;10.730;2023-11-19T12:30:22;13.50;99.90
25983;DHT22;13773;48.868;10.730;2023-11-19T12:32:49;14.80;99.90
25983;DHT22;13773;48.868;10.730;2023-11-19T12:35:14;13.30;99.90
25983;DHT22;13773;48.868;10.730;2023-11-19T12:37:44;13.20;99.90
25983;DHT22;13773;48.868;10.730;2023-11-19T12:40:24;13.20;99.90
25983;DHT22;13773;48.868;10.730;2023-11-19T12:42:52;13.10;99.90
25983;DHT22;13773;48.868;10.730;2023-11-19T12:45:18;13.10;99.90
25983;DHT22;13773;48.868;10.730;2023-11-19T12:47:46;13.00;99.90
25983;DHT22;13773;48.868;10.730;2023-11-19T12:50:13;13.00;99.90
25983;DHT22;13773;48.868;10.730;2023-11-19T12:52:39;13.00;99.90
25983;DHT22;13773;48.868;10.730;2023-11-19T12:55:05;13.00;99.90
25983;DHT22;13773;48.868;10.730;2023-11-19T12:57:49;12.90;99.90
25983;DHT22;13773;48.868;10.730;2023-11-19T13:00:22;12.70;99.90
25983;DHT22;13773;48.868;10.730;2023-11-19T13:02:56;12.60;99.90
25983;DHT22;13773;48.868;10.730;2023-11-19T13:08:02;12.50;99.90
25983;DHT22;13773;48.868;10.730;2023-11-19T13:10:29;12.60;99.90
25983;DHT22;13773;48.868;10.730;2023-11-19T13:13:05;12.70;99.90
25983;DHT22;13773;48.868;10.730;2023-11-19T13:15:31;12.60;99.90
25983;DHT22;13773;48.868;10.730;2023-11-19T13:17:57;12.60;99.90
25983;DHT22;13773;48.868;10.730;2023-11-19T13:20:23;12.60;99.90
25983;DHT22;13773;48.868;10.730;2023-11-19T13:25:25;12.30;99.90
25983;DHT22;13773;48.868;10.730;2023-11-19T13:27:51;12.30;99.90
25983;DHT22;13773;48.868;10.730;2023-11-19T13:30:17;12.20;99.90
25983;DHT22;13773;48.868;10.730;2023-11-19T13:32:43;12.20;99.90
25983;DHT22;13773;48.868;10.730;2023-11-19T13:35:12;12.20;99.90
25983;DHT22;13773;48.868;10.730;2023-11-19T13:37:38;12.30;99.90
25983;DHT22;13773;48.868;10.730;2023-11-19T13:40:05;12.40;99.90
25983;DHT22;13773;48.868;10.730;2023-11-19T13:42:30;12.40;99.90
25983;DHT22;13773;48.868;10.730;2023-11-19T13:44:56;12.30;99.90
25983;DHT22;13773;48.868;10.730;2023-11-19T13:47:22;12.20;99.90
25983;DHT22;13773;48.868;10.730;2023-11-19T13:49:49;12.10;99.90
25983;DHT22;13773;48.868;10.730;2023-11-19T13:52:15;12.10;99.90
25983;DHT22;13773;48.868;10.730;2023-11-19T13:54:40;12.20;99.90
25983;DHT22;13773;48.868;10.730;2023-11-19T13:57:06;12.30;99.90
25983;DHT22;13773;48.868;10.730;2023-11-19T13:59:32;12.50;99.90
25983;DHT22;13773;48.868;10.730;2023-11-19T14:01:58;12.60;99.90
25983;DHT22;13773;48.868;10.730;2023-11-19T14:04:24;12.60;99.90
25983;DHT22;13773;48.868;10.730;2023-11-19T14:06:50;12.60;99.90
25983;DHT22;13773;48.868;10.730;2023-11-19T14:09:16;12.70;99.90
25983;DHT22;13773;48.868;10.730;2023-11-19T14:11:43;12.60;99.90
25983;DHT22;13773;48.868;10.730;2023-11-19T14:14:09;12.60;99.90
25983;DHT22;13773;48.868;10.730;2023-11-19T14:16:34;12.50;99.90
25983;DHT22;13773;48.868;10.730;2023-11-19T14:19:00;12.50;99.90
25983;DHT22;13773;48.868;10.730;2023-11-19T14:21:26;12.40;99.90
25983;DHT22;13773;48.868;10.730;2023-11-19T14:23:52;12.50;99.90
25983;DHT22;13773;48.868;10.730;2023-11-19T14:26:18;12.60;99.90
25983;DHT22;13773;48.868;10.730;2023-11-19T14:28:44;12.60;99.90
25983;DHT22;13773;48.868;10.730;2023-11-19T14:31:09;12.70;99.90
25983;DHT22;13773;48.868;10.730;2023-11-19T14:33:35;12.70;99.90
25983;DHT22;13773;48.868;10.730;2023-11-19T14:36:03;12.80;99.90
25983;DHT22;13773;48.868;10.730;2023-11-19T14:38:30;12.80;99.90
25983;DHT22;13773;48.868;10.730;2023-11-19T14:40:56;12.80;99.90
25983;DHT22;13773;48.868;10.730;2023-11-19T14:43:21;12.70;99.90
25983;DHT22;13773;48.868;10.730;2023-11-19T14:45:47;12.70;99.90
25983;DHT22;13773;48.868;10.730;2023-11-19T14:48:13;12.70;99.90
25983;DHT22;13773;48.868;10.730;2023-11-19T14:50:39;12.60;99.90
25983;DHT22;13773;48.868;10.730;2023-11-19T14:53:04;12.60;99.90
25983;DHT22;13773;48.868;10.730;2023-11-19T14:55:30;12.60;99.90
25983;DHT22;13773;48.868;10.730;2023-11-19T14:57:56;12.60;99.90
25983;DHT22;13773;48.868;10.730;2023-11-19T15:00:22;12.60;99.90
25983;DHT22;13773;48.868;10.730;2023-11-19T15:02:48;12.60;99.90
25983;DHT22;13773;48.868;10.730;2023-11-19T15:05:13;12.60;99.90
25983;DHT22;13773;48.868;10.730;2023-11-19T15:07:39;12.40;99.90
25983;DHT22;13773;48.868;10.730;2023-11-19T15:10:08;12.30;99.90
25983;DHT22;13773;48.868;10.730;2023-11-19T15:12:38;12.10;99.90
25983;DHT22;13773;48.868;10.730;2023-11-19T15:15:09;12.10;99.90
25983;DHT22;13773;48.868;10.730;2023-11-19T15:17:35;11.90;99.90
25983;DHT22;13773;48.868;10.730;2023-11-19T15:20:03;11.80;99.90
25983;DHT22;13773;48.868;10.730;2023-11-19T15:22:28;11.60;99.90
25983;DHT22;13773;48.868;10.730;2023-11-19T15:24:54;11.40;99.90
25983;DHT22;13773;48.868;10.730;2023-11-19T15:27:20;11.20;99.90
25983;DHT22;13773;48.868;10.730;2023-11-19T15:29:46;11.10;99.90
25983;DHT22;13773;48.868;10.730;2023-11-19T15:32:11;11.00;99.90
25983;DHT22;13773;48.868;10.730;2023-11-19T15:34:37;10.90;99.90
25983;DHT22;13773;48.868;10.730;2023-11-19T15:37:05;10.70;99.90
25983;DHT22;13773;48.868;10.730;2023-11-19T15:39:31;10.50;99.90
25983;DHT22;13773;48.868;10.730;2023-11-19T15:41:58;10.40;99.90
25983;DHT22;13773;48.868;10.730;2023-11-19T15:44:24;10.40;99.90
25983;DHT22;13773;48.868;10.730;2023-11-19T15:46:50;10.40;99.90